sensor_id;sensor_type;location;lat;lon;timestamp;temperature;humidity
871;DHT22;422;51.280;7.236;2022-11-03T00:01:12;10.20;99.90
871;DHT22;422;51.280;7.236;2022-11-03T00:03:39;10.20;99.90
871;DHT22;422;51.280;7.236;2022-11-03T00:06:08;10.20;99.90
871;DHT22;422;51.280;7.236;2022-11-03T00:08:37;10.20;99.90
871;DHT22;422;51.280;7.236;2022-11-03T00:11:07;10.20;99.90
871;DHT22;422;51.280;7.236;2022-11-03T00:13:40;10.10;99.90
871;DHT22;422;51.280;7.236;2022-11-03T00:16:11;10.10;99.90
871;DHT22;422;51.280;7.236;2022-11-03T00:18:38;10.10;99.90
871;DHT22;422;51.280;7.236;2022-11-03T00:21:08;10.10;99.90
871;DHT22;422;51.280;7.236;2022-11-03T00:23:37;10.00;99.90
871;DHT22;422;51.280;7.236;2022-11-03T00:26:07;10.10;99.90
871;DHT22;422;51.280;7.236;2022-11-03T00:28:35;10.00;99.90
871;DHT22;422;51.280;7.236;2022-11-03T00:31:06;10.10;99.90
871;DHT22;422;51.280;7.236;2022-11-03T00:33:34;10.10;99.90
871;DHT22;422;51.280;7.236;2022-11-03T00:36:02;10.00;99.90
871;DHT22;422;51.280;7.236;2022-11-03T00:38:31;10.00;99.90
871;DHT22;422;51.280;7.236;2022-11-03T00:41:00;10.10;99.90
871;DHT22;422;51.280;7.236;2022-11-03T00:43:28;10.10;99.90
871;DHT22;422;51.280;7.236;2022-11-03T00:45:58;10.10;99.90
871;DHT22;422;51.280;7.236;2022-11-03T00:48:26;10.10;99.90
871;DHT22;422;51.280;7.236;2022-11-03T00:51:06;10.10;99.90
871;DHT22;422;51.280;7.236;2022-11-03T00:53:38;10.10;99.90
871;DHT22;422;51.280;7.236;2022-11-03T00:56:08;10.10;99.90
871;DHT22;422;51.280;7.236;2022-11-03T00:58:36;10.10;99.90
871;DHT22;422;51.280;7.236;2022-11-03T01:01:04;10.10;99.90
871;DHT22;422;51.280;7.236;2022-11-03T01:03:37;10.10;99.90
871;DHT22;422;51.280;7.236;2022-11-03T01:06:05;10.20;99.90
871;DHT22;422;51.280;7.236;2022-11-03T01:08:52;10.20;99.90
871;DHT22;422;51.280;7.236;2022-11-03T01:11:22;10.20;99.90
871;DHT22;422;51.280;7.236;2022-11-03T01:14:08;10.30;99.90
871;DHT22;422;51.280;7.236;2022-11-03T01:16:35;10.20;99.90
871;DHT22;422;51.280;7.236;2022-11-03T01:19:03;10.30;99.90
871;DHT22;422;51.280;7.236;2022-11-03T01:21:32;10.30;99.90
871;DHT22;422;51.280;7.236;2022-11-03T01:24:01;10.30;99.90
871;DHT22;422;51.280;7.236;2022-11-03T01:26:29;10.30;1.00
871;DHT22;422;51.280;7.236;2022-11-03T01:28:58;10.30;1.00
871;DHT22;422;51.280;7.236;2022-11-03T01:31:26;10.30;1.00
871;DHT22;422;51.280;7.236;2022-11-03T01:33:54;10.30;1.00
871;DHT22;422;51.280;7.236;2022-11-03T01:36:22;10.30;1.00
871;DHT22;422;51.280;7.236;2022-11-03T01:38:50;10.30;1.00
871;DHT22;422;51.280;7.236;2022-11-03T01:41:20;10.30;1.00
871;DHT22;422;51.280;7.236;2022-11-03T01:43:50;10.30;1.00
871;DHT22;422;51.280;7.236;2022-11-03T01:46:22;10.30;1.00
871;DHT22;422;51.280;7.236;2022-11-03T01:48:59;10.30;1.00
871;DHT22;422;51.280;7.236;2022-11-03T01:51:30;10.30;1.00
871;DHT22;422;51.280;7.236;2022-11-03T01:54:02;10.30;1.00
871;DHT22;422;51.280;7.236;2022-11-03T01:56:33;10.30;1.00
871;DHT22;422;51.280;7.236;2022-11-03T01:59:01;10.30;1.00
871;DHT22;422;51.280;7.236;2022-11-03T02:01:29;10.30;1.00
871;DHT22;422;51.280;7.236;2022-11-03T02:04:01;10.30;1.00
871;DHT22;422;51.280;7.236;2022-11-03T02:06:31;10.30;1.00
871;DHT22;422;51.280;7.236;2022-11-03T02:09:03;10.30;1.00
871;DHT22;422;51.280;7.236;2022-11-03T02:11:33;10.30;1.00
871;DHT22;422;51.280;7.236;2022-11-03T02:14:17;10.30;1.00
871;DHT22;422;51.280;7.236;2022-11-03T02:16:48;10.30;1.00
871;DHT22;422;51.280;7.236;2022-11-03T02:19:20;10.30;1.00
871;DHT22;422;51.280;7.236;2022-11-03T02:21:57;10.20;1.00
871;DHT22;422;51.280;7.236;2022-11-03T02:24:30;10.20;1.00
871;DHT22;422;51.280;7.236;2022-11-03T02:27:11;10.10;1.00
871;DHT22;422;51.280;7.236;2022-11-03T02:29:38;10.20;1.00
871;DHT22;422;51.280;7.236;2022-11-03T02:32:13;10.20;1.00
871;DHT22;422;51.280;7.236;2022-11-03T02:34:46;10.20;1.00
871;DHT22;422;51.280;7.236;2022-11-03T02:37:16;10.20;1.00
871;DHT22;422;51.280;7.236;2022-11-03T02:39:46;10.20;1.00
871;DHT22;422;51.280;7.236;2022-11-03T02:42:17;10.20;1.00
871;DHT22;422;51.280;7.236;2022-11-03T02:44:45;10.20;1.00
871;DHT22;422;51.280;7.236;2022-11-03T02:47:17;10.20;1.00
871;DHT22;422;51.280;7.236;2022-11-03T02:49:46;10.20;1.00
871;DHT22;422;51.280;7.236;2022-11-03T02:52:34;10.20;1.00
871;DHT22;422;51.280;7.236;2022-11-03T02:55:08;10.20;1.00
871;DHT22;422;51.280;7.236;2022-11-03T02:57:44;10.20;1.00
871;DHT22;422;51.280;7.236;2022-11-03T03:00:14;10.10;1.00
871;DHT22;422;51.280;7.236;2022-11-03T03:02:51;10.10;1.00
871;DHT22;422;51.280;7.236;2022-11-03T03:05:25;10.10;1.00
871;DHT22;422;51.280;7.236;2022-11-03T03:07:58;10.10;1.00
871;DHT22;422;51.280;7.236;2022-11-03T03:10:30;10.10;1.00
871;DHT22;422;51.280;7.236;2022-11-03T03:13:04;10.10;1.00
871;DHT22;422;51.280;7.236;2022-11-03T03:15:38;10.10;1.00
871;DHT22;422;51.280;7.236;2022-11-03T03:18:12;10.20;1.00
871;DHT22;422;51.280;7.236;2022-11-03T03:20:50;10.20;1.00
871;DHT22;422;51.280;7.236;2022-11-03T03:23:21;10.20;1.00
871;DHT22;422;51.280;7.236;2022-11-03T03:25:52;10.20;1.00
871;DHT22;422;51.280;7.236;2022-11-03T03:28:24;10.30;1.00
871;DHT22;422;51.280;7.236;2022-11-03T03:30:56;10.20;1.00
871;DHT22;422;51.280;7.236;2022-11-03T03:33:26;10.20;1.00
871;DHT22;422;51.280;7.236;2022-11-03T03:35:53;10.30;1.00
871;DHT22;422;51.280;7.236;2022-11-03T03:38:25;10.30;1.00
871;DHT22;422;51.280;7.236;2022-11-03T03:40:56;10.30;1.00
871;DHT22;422;51.280;7.236;2022-11-03T03:43:28;10.30;1.00
871;DHT22;422;51.280;7.236;2022-11-03T03:46:01;10.30;1.00
871;DHT22;422;51.280;7.236;2022-11-03T03:48:30;10.30;1.00
871;DHT22;422;51.280;7.236;2022-11-03T03:50:57;10.30;1.00
871;DHT22;422;51.280;7.236;2022-11-03T03:53:28;10.30;1.00
871;DHT22;422;51.280;7.236;2022-11-03T03:55:59;10.30;1.00
871;DHT22;422;51.280;7.236;2022-11-03T03:58:27;10.30;1.00
871;DHT22;422;51.280;7.236;2022-11-03T04:00:55;10.30;1.00
871;DHT22;422;51.280;7.236;2022-11-03T04:03:23;10.30;1.00
871;DHT22;422;51.280;7.236;2022-11-03T04:05:52;10.30;1.00
871;DHT22;422;51.280;7.236;2022-11-03T04:08:21;10.30;1.00
871;DHT22;422;51.280;7.236;2022-11-03T04:10:51;10.30;1.00
871;DHT22;422;51.280;7.236;2022-11-03T04:13:43;10.30;1.00
871;DHT22;422;51.280;7.236;2022-11-03T04:16:43;10.30;1.00
871;DHT22;422;51.280;7.236;2022-11-03T04:19:30;10.30;1.00
871;DHT22;422;51.280;7.236;2022-11-03T04:22:14;10.30;1.00
871;DHT22;422;51.280;7.236;2022-11-03T04:24:47;10.30;1.00
871;DHT22;422;51.280;7.236;2022-11-03T04:27:33;10.30;1.00
871;DHT22;422;51.280;7.236;2022-11-03T04:30:11;10.30;1.00
871;DHT22;422;51.280;7.236;2022-11-03T04:32:40;10.30;1.00
871;DHT22;422;51.280;7.236;2022-11-03T04:35:14;10.30;1.00
871;DHT22;422;51.280;7.236;2022-11-03T04:37:42;10.30;1.00
871;DHT22;422;51.280;7.236;2022-11-03T04:40:13;10.30;1.00
871;DHT22;422;51.280;7.236;2022-11-03T04:42:43;10.30;1.00
871;DHT22;422;51.280;7.236;2022-11-03T04:45:22;10.30;1.00
871;DHT22;422;51.280;7.236;2022-11-03T04:47:50;10.30;1.00
871;DHT22;422;51.280;7.236;2022-11-03T04:50:19;10.30;1.00
871;DHT22;422;51.280;7.236;2022-11-03T04:52:53;10.40;1.00
871;DHT22;422;51.280;7.236;2022-11-03T04:55:38;10.40;1.00
871;DHT22;422;51.280;7.236;2022-11-03T04:58:12;10.40;1.00
871;DHT22;422;51.280;7.236;2022-11-03T05:00:44;10.50;1.00
871;DHT22;422;51.280;7.236;2022-11-03T05:03:14;10.50;1.00
871;DHT22;422;51.280;7.236;2022-11-03T05:05:43;10.50;1.00
871;DHT22;422;51.280;7.236;2022-11-03T05:08:11;10.50;1.00
871;DHT22;422;51.280;7.236;2022-11-03T05:10:39;10.50;1.00
871;DHT22;422;51.280;7.236;2022-11-03T05:13:10;10.50;1.00
871;DHT22;422;51.280;7.236;2022-11-03T05:15:44;10.50;1.00
871;DHT22;422;51.280;7.236;2022-11-03T05:18:24;10.50;1.00
871;DHT22;422;51.280;7.236;2022-11-03T05:20:56;10.60;1.00
871;DHT22;422;51.280;7.236;2022-11-03T05:23:26;10.60;1.00
871;DHT22;422;51.280;7.236;2022-11-03T05:25:55;10.60;1.00
871;DHT22;422;51.280;7.236;2022-11-03T05:28:25;10.70;1.00
871;DHT22;422;51.280;7.236;2022-11-03T05:30:55;10.70;1.00
871;DHT22;422;51.280;7.236;2022-11-03T05:33:28;10.70;1.00
871;DHT22;422;51.280;7.236;2022-11-03T05:35:57;10.70;1.00
871;DHT22;422;51.280;7.236;2022-11-03T05:38:29;10.70;1.00
871;DHT22;422;51.280;7.236;2022-11-03T05:40:59;10.70;1.00
871;DHT22;422;51.280;7.236;2022-11-03T05:43:27;10.70;1.00
871;DHT22;422;51.280;7.236;2022-11-03T05:45:59;10.80;1.00
871;DHT22;422;51.280;7.236;2022-11-03T05:48:32;10.80;1.00
871;DHT22;422;51.280;7.236;2022-11-03T05:51:02;10.70;1.00
871;DHT22;422;51.280;7.236;2022-11-03T05:53:41;10.70;1.00
871;DHT22;422;51.280;7.236;2022-11-03T05:56:14;10.70;1.00
871;DHT22;422;51.280;7.236;2022-11-03T05:58:45;10.70;1.00
871;DHT22;422;51.280;7.236;2022-11-03T06:01:21;10.70;1.00
871;DHT22;422;51.280;7.236;2022-11-03T06:03:50;10.70;1.00
871;DHT22;422;51.280;7.236;2022-11-03T06:06:19;10.70;1.00
871;DHT22;422;51.280;7.236;2022-11-03T06:08:50;10.70;1.00
871;DHT22;422;51.280;7.236;2022-11-03T06:11:25;10.80;1.00
871;DHT22;422;51.280;7.236;2022-11-03T06:13:59;10.80;1.00
871;DHT22;422;51.280;7.236;2022-11-03T06:16:36;10.80;1.00
871;DHT22;422;51.280;7.236;2022-11-03T06:19:20;10.90;1.00
871;DHT22;422;51.280;7.236;2022-11-03T06:21:50;10.90;1.00
871;DHT22;422;51.280;7.236;2022-11-03T06:24:24;11.00;1.00
871;DHT22;422;51.280;7.236;2022-11-03T06:26:52;11.00;1.00
871;DHT22;422;51.280;7.236;2022-11-03T06:29:20;11.00;1.00
871;DHT22;422;51.280;7.236;2022-11-03T06:31:50;11.10;1.00
871;DHT22;422;51.280;7.236;2022-11-03T06:34:30;11.00;1.00
871;DHT22;422;51.280;7.236;2022-11-03T06:37:04;11.10;1.00
871;DHT22;422;51.280;7.236;2022-11-03T06:39:36;11.00;1.00
871;DHT22;422;51.280;7.236;2022-11-03T06:42:11;11.00;1.00
871;DHT22;422;51.280;7.236;2022-11-03T06:44:43;11.00;1.00
871;DHT22;422;51.280;7.236;2022-11-03T06:47:20;11.00;1.00
871;DHT22;422;51.280;7.236;2022-11-03T06:49:49;11.10;1.00
871;DHT22;422;51.280;7.236;2022-11-03T06:52:26;11.10;1.00
871;DHT22;422;51.280;7.236;2022-11-03T06:55:00;11.20;1.00
871;DHT22;422;51.280;7.236;2022-11-03T06:57:38;11.20;1.00
871;DHT22;422;51.280;7.236;2022-11-03T07:00:14;11.20;1.00
871;DHT22;422;51.280;7.236;2022-11-03T07:03:00;11.30;1.00
871;DHT22;422;51.280;7.236;2022-11-03T07:05:30;11.30;1.00
871;DHT22;422;51.280;7.236;2022-11-03T07:07:59;11.30;1.00
871;DHT22;422;51.280;7.236;2022-11-03T07:10:30;11.30;1.00
871;DHT22;422;51.280;7.236;2022-11-03T07:13:05;11.40;1.00
871;DHT22;422;51.280;7.236;2022-11-03T07:15:36;11.40;1.00
871;DHT22;422;51.280;7.236;2022-11-03T07:18:14;11.40;1.00
871;DHT22;422;51.280;7.236;2022-11-03T07:20:43;11.40;1.00
871;DHT22;422;51.280;7.236;2022-11-03T07:23:13;11.40;1.00
871;DHT22;422;51.280;7.236;2022-11-03T07:25:42;11.40;1.00
871;DHT22;422;51.280;7.236;2022-11-03T07:28:10;11.40;1.00
871;DHT22;422;51.280;7.236;2022-11-03T07:30:39;11.40;1.00
871;DHT22;422;51.280;7.236;2022-11-03T07:33:17;11.40;1.00
871;DHT22;422;51.280;7.236;2022-11-03T07:35:46;11.50;1.00
871;DHT22;422;51.280;7.236;2022-11-03T07:38:19;11.50;1.00
871;DHT22;422;51.280;7.236;2022-11-03T07:40:46;11.50;1.00
871;DHT22;422;51.280;7.236;2022-11-03T07:43:18;11.40;1.00
871;DHT22;422;51.280;7.236;2022-11-03T07:45:48;11.50;1.00
871;DHT22;422;51.280;7.236;2022-11-03T07:48:23;11.50;1.00
871;DHT22;422;51.280;7.236;2022-11-03T07:50:54;11.70;1.00
871;DHT22;422;51.280;7.236;2022-11-03T07:53:31;11.80;1.00
871;DHT22;422;51.280;7.236;2022-11-03T07:56:01;12.00;1.00
871;DHT22;422;51.280;7.236;2022-11-03T07:58:35;12.20;1.00
871;DHT22;422;51.280;7.236;2022-11-03T08:01:15;12.30;1.00
871;DHT22;422;51.280;7.236;2022-11-03T08:03:48;12.50;1.00
871;DHT22;422;51.280;7.236;2022-11-03T08:06:18;12.50;99.90
871;DHT22;422;51.280;7.236;2022-11-03T08:08:46;12.50;99.90
871;DHT22;422;51.280;7.236;2022-11-03T08:11:13;12.40;99.90
871;DHT22;422;51.280;7.236;2022-11-03T08:13:40;12.40;99.90
871;DHT22;422;51.280;7.236;2022-11-03T08:16:09;12.40;99.90
871;DHT22;422;51.280;7.236;2022-11-03T08:18:36;12.40;99.90
871;DHT22;422;51.280;7.236;2022-11-03T08:21:05;12.50;99.90
871;DHT22;422;51.280;7.236;2022-11-03T08:23:32;12.70;99.90
871;DHT22;422;51.280;7.236;2022-11-03T08:26:06;12.90;99.90
871;DHT22;422;51.280;7.236;2022-11-03T08:28:36;13.10;99.90
871;DHT22;422;51.280;7.236;2022-11-03T08:31:06;13.20;99.90
871;DHT22;422;51.280;7.236;2022-11-03T08:33:34;13.20;99.90
871;DHT22;422;51.280;7.236;2022-11-03T08:36:04;13.10;99.90
871;DHT22;422;51.280;7.236;2022-11-03T08:38:31;13.10;99.90
871;DHT22;422;51.280;7.236;2022-11-03T08:40:58;13.10;99.90
871;DHT22;422;51.280;7.236;2022-11-03T08:43:27;13.00;99.90
871;DHT22;422;51.280;7.236;2022-11-03T08:45:54;13.10;99.90
871;DHT22;422;51.280;7.236;2022-11-03T08:48:22;13.10;99.90
871;DHT22;422;51.280;7.236;2022-11-03T08:50:53;13.20;99.90
871;DHT22;422;51.280;7.236;2022-11-03T08:53:23;13.40;99.90
871;DHT22;422;51.280;7.236;2022-11-03T08:55:50;13.50;99.90
871;DHT22;422;51.280;7.236;2022-11-03T08:58:18;13.60;99.90
871;DHT22;422;51.280;7.236;2022-11-03T09:00:48;13.60;99.90
871;DHT22;422;51.280;7.236;2022-11-03T09:03:21;13.70;99.90
871;DHT22;422;51.280;7.236;2022-11-03T09:05:48;13.90;99.90
871;DHT22;422;51.280;7.236;2022-11-03T09:08:15;13.90;99.90
871;DHT22;422;51.280;7.236;2022-11-03T09:10:46;14.00;99.90
871;DHT22;422;51.280;7.236;2022-11-03T09:13:14;14.10;99.90
871;DHT22;422;51.280;7.236;2022-11-03T09:15:41;14.20;99.90
871;DHT22;422;51.280;7.236;2022-11-03T09:18:12;14.30;99.90
871;DHT22;422;51.280;7.236;2022-11-03T09:20:39;14.20;99.90
871;DHT22;422;51.280;7.236;2022-11-03T09:23:06;14.50;99.90
871;DHT22;422;51.280;7.236;2022-11-03T09:25:33;14.70;99.90
871;DHT22;422;51.280;7.236;2022-11-03T09:28:02;14.80;99.90
871;DHT22;422;51.280;7.236;2022-11-03T09:30:29;15.00;99.90
871;DHT22;422;51.280;7.236;2022-11-03T09:32:57;15.10;99.90
871;DHT22;422;51.280;7.236;2022-11-03T09:35:24;15.20;99.90
871;DHT22;422;51.280;7.236;2022-11-03T09:37:52;15.20;99.90
871;DHT22;422;51.280;7.236;2022-11-03T09:40:23;15.10;99.90
871;DHT22;422;51.280;7.236;2022-11-03T09:42:57;15.00;99.90
871;DHT22;422;51.280;7.236;2022-11-03T09:45:26;15.00;99.90
871;DHT22;422;51.280;7.236;2022-11-03T09:47:53;15.10;99.90
871;DHT22;422;51.280;7.236;2022-11-03T09:50:21;15.00;99.90
871;DHT22;422;51.280;7.236;2022-11-03T09:52:48;15.00;99.90
871;DHT22;422;51.280;7.236;2022-11-03T09:55:21;15.00;99.90
871;DHT22;422;51.280;7.236;2022-11-03T09:57:51;15.00;99.90
871;DHT22;422;51.280;7.236;2022-11-03T10:00:23;14.90;99.90
871;DHT22;422;51.280;7.236;2022-11-03T10:02:53;14.80;99.90
871;DHT22;422;51.280;7.236;2022-11-03T10:05:24;14.90;99.90
871;DHT22;422;51.280;7.236;2022-11-03T10:07:53;15.00;99.90
871;DHT22;422;51.280;7.236;2022-11-03T10:10:22;15.10;99.90
871;DHT22;422;51.280;7.236;2022-11-03T10:12:50;15.10;99.90
871;DHT22;422;51.280;7.236;2022-11-03T10:15:20;14.90;99.90
871;DHT22;422;51.280;7.236;2022-11-03T10:17:51;14.90;99.90
871;DHT22;422;51.280;7.236;2022-11-03T10:20:20;14.80;99.90
871;DHT22;422;51.280;7.236;2022-11-03T10:22:51;14.80;99.90
871;DHT22;422;51.280;7.236;2022-11-03T10:25:37;14.80;99.90
871;DHT22;422;51.280;7.236;2022-11-03T10:28:13;14.90;99.90
871;DHT22;422;51.280;7.236;2022-11-03T10:30:54;14.90;99.90
871;DHT22;422;51.280;7.236;2022-11-03T10:33:27;14.90;99.90
871;DHT22;422;51.280;7.236;2022-11-03T10:35:56;14.90;99.90
871;DHT22;422;51.280;7.236;2022-11-03T10:38:28;14.80;99.90
871;DHT22;422;51.280;7.236;2022-11-03T10:41:08;15.00;99.90
871;DHT22;422;51.280;7.236;2022-11-03T10:43:35;14.90;99.90
871;DHT22;422;51.280;7.236;2022-11-03T10:46:18;14.90;99.90
871;DHT22;422;51.280;7.236;2022-11-03T10:49:01;15.00;99.90
871;DHT22;422;51.280;7.236;2022-11-03T10:51:28;15.00;99.90
871;DHT22;422;51.280;7.236;2022-11-03T10:53:56;14.90;99.90
871;DHT22;422;51.280;7.236;2022-11-03T10:56:23;14.90;99.90
871;DHT22;422;51.280;7.236;2022-11-03T10:58:51;14.80;99.90
871;DHT22;422;51.280;7.236;2022-11-03T11:01:18;14.90;99.90
871;DHT22;422;51.280;7.236;2022-11-03T11:03:45;15.00;99.90
871;DHT22;422;51.280;7.236;2022-11-03T11:06:23;14.90;99.90
871;DHT22;422;51.280;7.236;2022-11-03T11:09:01;14.90;99.90
871;DHT22;422;51.280;7.236;2022-11-03T11:11:30;14.80;99.90
871;DHT22;422;51.280;7.236;2022-11-03T11:14:31;14.80;99.90
871;DHT22;422;51.280;7.236;2022-11-03T11:17:02;14.90;99.90
871;DHT22;422;51.280;7.236;2022-11-03T11:22:44;15.30;99.90
871;DHT22;422;51.280;7.236;2022-11-03T11:25:14;15.40;99.90
871;DHT22;422;51.280;7.236;2022-11-03T11:27:56;15.20;99.90
871;DHT22;422;51.280;7.236;2022-11-03T11:30:56;15.10;99.90
871;DHT22;422;51.280;7.236;2022-11-03T11:33:25;15.20;99.90
871;DHT22;422;51.280;7.236;2022-11-03T11:39:02;15.20;99.90
871;DHT22;422;51.280;7.236;2022-11-03T11:42:04;15.20;99.90
871;DHT22;422;51.280;7.236;2022-11-03T11:45:04;15.40;99.90
871;DHT22;422;51.280;7.236;2022-11-03T11:47:34;15.70;99.90
871;DHT22;422;51.280;7.236;2022-11-03T11:50:24;16.00;99.90
871;DHT22;422;51.280;7.236;2022-11-03T11:52:56;16.10;99.90
871;DHT22;422;51.280;7.236;2022-11-03T11:55:30;16.10;99.90
871;DHT22;422;51.280;7.236;2022-11-03T11:57:59;16.00;99.90
871;DHT22;422;51.280;7.236;2022-11-03T12:00:30;16.00;99.90
871;DHT22;422;51.280;7.236;2022-11-03T12:03:01;16.00;99.90
871;DHT22;422;51.280;7.236;2022-11-03T12:05:31;15.80;99.90
871;DHT22;422;51.280;7.236;2022-11-03T12:07:59;15.60;99.90
871;DHT22;422;51.280;7.236;2022-11-03T12:10:29;15.60;99.90
871;DHT22;422;51.280;7.236;2022-11-03T12:12:58;15.40;99.90
871;DHT22;422;51.280;7.236;2022-11-03T12:15:48;15.40;99.90
871;DHT22;422;51.280;7.236;2022-11-03T12:18:39;15.20;99.90
871;DHT22;422;51.280;7.236;2022-11-03T12:21:08;15.10;99.90
871;DHT22;422;51.280;7.236;2022-11-03T12:23:38;15.10;99.90
871;DHT22;422;51.280;7.236;2022-11-03T12:26:17;15.10;99.90
871;DHT22;422;51.280;7.236;2022-11-03T12:28:46;15.00;99.90
871;DHT22;422;51.280;7.236;2022-11-03T12:31:13;15.00;99.90
871;DHT22;422;51.280;7.236;2022-11-03T12:33:40;14.90;99.90
871;DHT22;422;51.280;7.236;2022-11-03T12:36:08;14.90;99.90
871;DHT22;422;51.280;7.236;2022-11-03T12:38:35;14.80;99.90
871;DHT22;422;51.280;7.236;2022-11-03T12:41:09;14.90;99.90
871;DHT22;422;51.280;7.236;2022-11-03T12:43:53;15.00;99.90
871;DHT22;422;51.280;7.236;2022-11-03T12:46:22;15.10;99.90
871;DHT22;422;51.280;7.236;2022-11-03T12:48:51;15.20;99.90
871;DHT22;422;51.280;7.236;2022-11-03T12:51:19;15.20;99.90
871;DHT22;422;51.280;7.236;2022-11-03T12:53:47;15.30;99.90
871;DHT22;422;51.280;7.236;2022-11-03T12:56:16;15.30;99.90
871;DHT22;422;51.280;7.236;2022-11-03T12:58:44;15.40;99.90
871;DHT22;422;51.280;7.236;2022-11-03T13:01:11;15.40;99.90
871;DHT22;422;51.280;7.236;2022-11-03T13:03:38;15.20;99.90
871;DHT22;422;51.280;7.236;2022-11-03T13:06:09;15.00;99.90
871;DHT22;422;51.280;7.236;2022-11-03T13:08:39;14.70;99.90
871;DHT22;422;51.280;7.236;2022-11-03T13:11:09;14.60;99.90
871;DHT22;422;51.280;7.236;2022-11-03T13:13:52;14.50;99.90
871;DHT22;422;51.280;7.236;2022-11-03T13:16:24;14.50;99.90
871;DHT22;422;51.280;7.236;2022-11-03T13:18:52;14.50;99.90
871;DHT22;422;51.280;7.236;2022-11-03T13:21:19;14.50;99.90
871;DHT22;422;51.280;7.236;2022-11-03T13:23:46;14.40;99.90
871;DHT22;422;51.280;7.236;2022-11-03T13:26:18;14.40;99.90
871;DHT22;422;51.280;7.236;2022-11-03T13:28:45;14.40;99.90
871;DHT22;422;51.280;7.236;2022-11-03T13:31:13;14.40;99.90
871;DHT22;422;51.280;7.236;2022-11-03T13:33:43;14.40;99.90
871;DHT22;422;51.280;7.236;2022-11-03T13:36:10;14.40;99.90
871;DHT22;422;51.280;7.236;2022-11-03T13:38:37;14.40;99.90
871;DHT22;422;51.280;7.236;2022-11-03T13:41:05;14.40;99.90
871;DHT22;422;51.280;7.236;2022-11-03T13:43:32;14.40;99.90
871;DHT22;422;51.280;7.236;2022-11-03T13:46:00;14.40;99.90
871;DHT22;422;51.280;7.236;2022-11-03T13:48:32;14.20;99.90
871;DHT22;422;51.280;7.236;2022-11-03T13:50:59;14.10;99.90
871;DHT22;422;51.280;7.236;2022-11-03T13:53:28;14.10;99.90
871;DHT22;422;51.280;7.236;2022-11-03T13:55:58;14.10;99.90
871;DHT22;422;51.280;7.236;2022-11-03T13:58:27;13.90;99.90
871;DHT22;422;51.280;7.236;2022-11-03T14:00:55;13.90;99.90
871;DHT22;422;51.280;7.236;2022-11-03T14:03:22;14.00;99.90
871;DHT22;422;51.280;7.236;2022-11-03T14:05:51;14.10;99.90
871;DHT22;422;51.280;7.236;2022-11-03T14:08:18;14.10;99.90
871;DHT22;422;51.280;7.236;2022-11-03T14:10:49;14.00;99.90
871;DHT22;422;51.280;7.236;2022-11-03T14:13:20;13.90;99.90
871;DHT22;422;51.280;7.236;2022-11-03T14:15:46;13.80;99.90
871;DHT22;422;51.280;7.236;2022-11-03T14:18:13;13.80;99.90
871;DHT22;422;51.280;7.236;2022-11-03T14:20:40;13.70;99.90
871;DHT22;422;51.280;7.236;2022-11-03T14:23:13;13.70;99.90
871;DHT22;422;51.280;7.236;2022-11-03T14:25:40;13.70;99.90
871;DHT22;422;51.280;7.236;2022-11-03T14:28:07;13.70;99.90
871;DHT22;422;51.280;7.236;2022-11-03T14:30:34;13.70;99.90
871;DHT22;422;51.280;7.236;2022-11-03T14:33:01;13.60;99.90
871;DHT22;422;51.280;7.236;2022-11-03T14:35:28;13.60;99.90
871;DHT22;422;51.280;7.236;2022-11-03T14:37:58;13.60;99.90
871;DHT22;422;51.280;7.236;2022-11-03T14:40:26;13.60;99.90
871;DHT22;422;51.280;7.236;2022-11-03T14:43:11;13.50;99.90
871;DHT22;422;51.280;7.236;2022-11-03T14:45:38;13.50;99.90
871;DHT22;422;51.280;7.236;2022-11-03T14:48:06;13.40;99.90
871;DHT22;422;51.280;7.236;2022-11-03T14:50:36;13.40;99.90
871;DHT22;422;51.280;7.236;2022-11-03T14:53:03;13.40;99.90
871;DHT22;422;51.280;7.236;2022-11-03T14:55:32;13.30;99.90
871;DHT22;422;51.280;7.236;2022-11-03T14:58:00;13.30;99.90
871;DHT22;422;51.280;7.236;2022-11-03T15:00:29;13.30;99.90
871;DHT22;422;51.280;7.236;2022-11-03T15:02:57;13.20;99.90
871;DHT22;422;51.280;7.236;2022-11-03T15:05:24;13.10;99.90
871;DHT22;422;51.280;7.236;2022-11-03T15:08:13;12.90;99.90
871;DHT22;422;51.280;7.236;2022-11-03T15:10:42;12.90;99.90
871;DHT22;422;51.280;7.236;2022-11-03T15:13:10;12.80;99.90
871;DHT22;422;51.280;7.236;2022-11-03T15:15:40;12.80;99.90
871;DHT22;422;51.280;7.236;2022-11-03T15:18:09;12.80;99.90
871;DHT22;422;51.280;7.236;2022-11-03T15:20:36;12.80;99.90
871;DHT22;422;51.280;7.236;2022-11-03T15:23:04;12.80;99.90
871;DHT22;422;51.280;7.236;2022-11-03T15:25:33;12.70;99.90
871;DHT22;422;51.280;7.236;2022-11-03T15:28:02;12.60;99.90
871;DHT22;422;51.280;7.236;2022-11-03T15:30:31;12.60;99.90
871;DHT22;422;51.280;7.236;2022-11-03T15:32:58;12.40;1.00
871;DHT22;422;51.280;7.236;2022-11-03T15:35:25;12.30;1.00
871;DHT22;422;51.280;7.236;2022-11-03T15:37:53;12.20;1.00
871;DHT22;422;51.280;7.236;2022-11-03T15:40:20;12.20;1.00
871;DHT22;422;51.280;7.236;2022-11-03T15:42:47;12.10;1.00
871;DHT22;422;51.280;7.236;2022-11-03T15:45:17;12.00;1.00
871;DHT22;422;51.280;7.236;2022-11-03T15:47:49;12.00;1.00
871;DHT22;422;51.280;7.236;2022-11-03T15:50:16;11.90;1.00
871;DHT22;422;51.280;7.236;2022-11-03T15:52:45;11.80;1.00
871;DHT22;422;51.280;7.236;2022-11-03T15:55:12;11.80;1.00
871;DHT22;422;51.280;7.236;2022-11-03T15:57:39;11.70;1.00
871;DHT22;422;51.280;7.236;2022-11-03T16:00:09;11.60;1.00
871;DHT22;422;51.280;7.236;2022-11-03T16:02:38;11.60;1.00
871;DHT22;422;51.280;7.236;2022-11-03T16:05:07;11.60;1.00
871;DHT22;422;51.280;7.236;2022-11-03T16:07:34;11.50;12.50
871;DHT22;422;51.280;7.236;2022-11-03T16:10:04;11.40;82.50
871;DHT22;422;51.280;7.236;2022-11-03T16:12:31;11.40;99.90
871;DHT22;422;51.280;7.236;2022-11-03T16:14:59;11.30;99.90
871;DHT22;422;51.280;7.236;2022-11-03T16:17:27;11.30;99.90
871;DHT22;422;51.280;7.236;2022-11-03T16:19:55;11.30;99.90
871;DHT22;422;51.280;7.236;2022-11-03T16:22:27;11.20;1.00
871;DHT22;422;51.280;7.236;2022-11-03T16:24:55;11.20;1.00
871;DHT22;422;51.280;7.236;2022-11-03T16:27:22;11.20;99.90
871;DHT22;422;51.280;7.236;2022-11-03T16:29:50;11.10;99.90
871;DHT22;422;51.280;7.236;2022-11-03T16:32:18;11.10;99.90
871;DHT22;422;51.280;7.236;2022-11-03T16:34:49;11.00;1.00
871;DHT22;422;51.280;7.236;2022-11-03T16:37:17;11.00;77.50
871;DHT22;422;51.280;7.236;2022-11-03T16:39:44;11.00;99.90
871;DHT22;422;51.280;7.236;2022-11-03T16:42:12;11.00;99.90
871;DHT22;422;51.280;7.236;2022-11-03T16:44:39;11.00;1.00
871;DHT22;422;51.280;7.236;2022-11-03T16:47:09;10.90;1.00
871;DHT22;422;51.280;7.236;2022-11-03T16:49:37;10.90;1.00
871;DHT22;422;51.280;7.236;2022-11-03T16:52:08;10.90;99.90
871;DHT22;422;51.280;7.236;2022-11-03T16:54:39;10.90;99.90
871;DHT22;422;51.280;7.236;2022-11-03T16:57:06;10.90;99.90
871;DHT22;422;51.280;7.236;2022-11-03T16:59:36;10.90;99.90
871;DHT22;422;51.280;7.236;2022-11-03T17:02:04;10.90;1.00
871;DHT22;422;51.280;7.236;2022-11-03T17:04:32;10.90;1.00
871;DHT22;422;51.280;7.236;2022-11-03T17:06:59;10.80;90.80
871;DHT22;422;51.280;7.236;2022-11-03T17:09:29;10.80;99.90
871;DHT22;422;51.280;7.236;2022-11-03T17:12:08;10.80;99.90
871;DHT22;422;51.280;7.236;2022-11-03T17:14:37;10.90;99.90